createdAt,value
2017-11-17T00:00:00.595Z,6.80
2017-11-17T00:02:28.923Z,6.80
2017-11-17T00:04:58.015Z,6.60
2017-11-17T00:07:27.080Z,6.60
2017-11-17T00:09:55.373Z,6.60
2017-11-17T00:12:23.699Z,6.80
2017-11-17T00:14:51.996Z,6.80
2017-11-17T00:17:21.086Z,6.90
2017-11-17T00:19:49.401Z,6.90
2017-11-17T00:22:18.466Z,6.80
2017-11-17T00:24:46.871Z,6.80
2017-11-17T00:27:15.164Z,6.80
2017-11-17T00:29:43.495Z,6.70
2017-11-17T00:32:11.813Z,6.80
2017-11-17T00:34:40.245Z,6.80
2017-11-17T00:37:08.575Z,6.70
2017-11-17T00:39:36.878Z,6.60
2017-11-17T00:42:05.208Z,6.70
2017-11-17T00:44:33.550Z,6.70
2017-11-17T00:47:01.894Z,6.70
2017-11-17T00:49:30.196Z,6.70
2017-11-17T00:51:59.383Z,6.70
2017-11-17T00:54:27.706Z,6.70
2017-11-17T00:56:56.757Z,6.80
2017-11-17T00:59:25.087Z,6.80
2017-11-17T01:01:54.168Z,6.60
2017-11-17T01:04:23.248Z,6.60
2017-11-17T01:06:51.536Z,6.60
2017-11-17T01:09:19.904Z,6.60
2017-11-17T01:11:48.212Z,6.60
2017-11-17T01:14:16.507Z,6.50
2017-11-17T01:16:45.040Z,6.60
2017-11-17T01:19:13.332Z,6.50
2017-11-17T01:21:41.628Z,6.40
2017-11-17T01:24:09.966Z,6.40
2017-11-17T01:26:38.255Z,6.50
2017-11-17T01:29:06.544Z,6.40
2017-11-17T01:31:34.877Z,6.30
2017-11-17T01:34:03.211Z,6.30
2017-11-17T01:36:31.516Z,6.30
2017-11-17T01:38:59.808Z,6.30
2017-11-17T01:41:28.241Z,6.30
2017-11-17T01:43:56.570Z,6.30
2017-11-17T01:46:24.862Z,6.50
2017-11-17T01:48:53.156Z,6.40
2017-11-17T01:51:21.484Z,6.40
2017-11-17T01:53:49.788Z,6.40
2017-11-17T01:56:18.173Z,6.30
2017-11-17T01:58:46.561Z,6.40
2017-11-17T02:01:14.860Z,6.40
2017-11-17T02:03:43.156Z,6.40
2017-11-17T02:06:11.481Z,6.40
2017-11-17T02:08:39.780Z,6.40
2017-11-17T02:11:08.139Z,6.40
2017-11-17T02:13:37.197Z,6.30
2017-11-17T02:16:05.505Z,6.40
2017-11-17T02:18:33.820Z,6.30
2017-11-17T02:21:03.008Z,6.30
2017-11-17T02:23:32.216Z,6.30
2017-11-17T02:26:00.579Z,6.40
2017-11-17T02:28:28.875Z,6.30
2017-11-17T02:30:57.181Z,6.30
2017-11-17T02:33:25.506Z,6.30
2017-11-17T02:35:54.565Z,6.40
2017-11-17T02:38:22.870Z,6.40
2017-11-17T02:40:51.195Z,6.40
2017-11-17T02:43:20.258Z,6.40
2017-11-17T02:45:48.674Z,6.30
2017-11-17T02:48:17.060Z,6.40
2017-11-17T02:50:45.358Z,6.30
2017-11-17T02:53:13.676Z,6.30
2017-11-17T02:55:41.973Z,6.30
2017-11-17T02:58:10.265Z,6.30
2017-11-17T03:00:38.580Z,6.40
2017-11-17T03:03:06.859Z,6.30
2017-11-17T03:05:35.194Z,6.30
2017-11-17T03:08:03.494Z,6.30
2017-11-17T03:10:32.585Z,6.40
2017-11-17T03:13:00.972Z,6.40
2017-11-17T03:15:29.300Z,6.40
2017-11-17T03:17:57.593Z,6.40
2017-11-17T03:20:25.941Z,6.50
2017-11-17T03:22:54.230Z,6.40
2017-11-17T03:25:22.561Z,6.40
2017-11-17T03:27:50.852Z,6.50
2017-11-17T03:30:19.530Z,6.50
2017-11-17T03:32:48.609Z,6.60
2017-11-17T03:35:16.995Z,6.60
2017-11-17T03:37:45.313Z,6.50
2017-11-17T03:43:14.046Z,6.50
2017-11-17T03:45:43.099Z,6.50
2017-11-17T03:48:11.439Z,6.50
2017-11-17T03:50:39.755Z,6.50
2017-11-17T03:53:08.310Z,6.60
2017-11-17T03:55:36.608Z,6.60
2017-11-17T03:58:04.909Z,6.50
2017-11-17T04:00:33.988Z,6.60
2017-11-17T04:03:02.447Z,6.60
2017-11-17T04:05:30.769Z,6.60
2017-11-17T04:07:59.059Z,6.70
2017-11-17T04:10:27.354Z,6.60
2017-11-17T04:12:55.684Z,6.60
2017-11-17T04:15:23.986Z,6.60
2017-11-17T04:17:52.420Z,6.60
2017-11-17T04:20:20.724Z,6.60
2017-11-17T04:22:49.021Z,6.70
2017-11-17T04:25:18.129Z,6.70
2017-11-17T04:27:47.242Z,6.80
2017-11-17T04:30:16.334Z,6.60
2017-11-17T04:32:44.657Z,6.60
2017-11-17T04:35:12.947Z,6.60
2017-11-17T04:37:41.268Z,6.70
2017-11-17T04:40:09.985Z,6.80
2017-11-17T04:42:38.296Z,6.80
2017-11-17T04:45:06.598Z,6.80
2017-11-17T04:47:35.683Z,6.80
2017-11-17T04:50:03.981Z,6.80
2017-11-17T04:52:32.305Z,6.80
2017-11-17T04:55:00.590Z,6.80
2017-11-17T04:57:29.026Z,6.80
2017-11-17T04:59:57.314Z,6.80
2017-11-17T05:02:25.660Z,6.80
2017-11-17T05:04:53.951Z,6.90
2017-11-17T05:07:22.245Z,6.80
2017-11-17T05:09:50.575Z,6.90
2017-11-17T05:12:18.912Z,7.00
2017-11-17T05:14:47.996Z,7.00
2017-11-17T05:17:16.323Z,7.00
2017-11-17T05:19:44.615Z,7.00
2017-11-17T05:22:12.936Z,7.00
2017-11-17T05:24:41.220Z,7.00
2017-11-17T05:27:09.553Z,6.90
2017-11-17T05:29:38.635Z,7.00
2017-11-17T05:32:06.923Z,6.90
2017-11-17T05:34:35.261Z,7.10
2017-11-17T05:37:03.590Z,7.00
2017-11-17T05:39:31.880Z,7.10
2017-11-17T05:42:00.206Z,7.10
2017-11-17T05:44:29.307Z,7.20
2017-11-17T05:46:58.372Z,7.20
2017-11-17T05:49:26.705Z,7.20
2017-11-17T05:51:55.809Z,7.10
2017-11-17T05:54:24.193Z,7.10
2017-11-17T05:56:52.484Z,7.10
2017-11-17T05:59:20.971Z,7.20
2017-11-17T06:01:49.272Z,7.20
2017-11-17T06:04:17.563Z,7.20
2017-11-17T06:06:45.897Z,7.20
2017-11-17T06:09:14.193Z,7.10
2017-11-17T06:11:42.622Z,7.10
2017-11-17T06:14:10.912Z,7.10
2017-11-17T06:16:39.241Z,7.10
2017-11-17T06:19:07.528Z,7.10
2017-11-17T06:21:35.829Z,7.20
2017-11-17T06:24:04.144Z,7.10
2017-11-17T06:26:32.471Z,7.20
2017-11-17T06:29:00.900Z,7.10
2017-11-17T06:31:29.217Z,7.10
2017-11-17T06:33:57.575Z,7.10
2017-11-17T06:36:25.864Z,7.10
2017-11-17T06:38:54.192Z,7.00
2017-11-17T06:41:22.498Z,7.00
2017-11-17T06:43:50.838Z,7.10
2017-11-17T06:46:19.163Z,7.20
2017-11-17T06:48:47.673Z,7.20
2017-11-17T06:51:15.972Z,7.20
2017-11-17T06:53:44.360Z,7.20
2017-11-17T06:56:12.689Z,7.20
2017-11-17T06:58:41.119Z,7.20
2017-11-17T07:01:09.411Z,7.30
2017-11-17T07:03:37.733Z,7.30
2017-11-17T07:06:06.822Z,7.50
2017-11-17T07:08:35.121Z,7.50
2017-11-17T07:11:03.614Z,7.50
2017-11-17T07:13:32.717Z,7.50
2017-11-17T07:16:01.003Z,7.50
2017-11-17T07:18:29.331Z,7.50
2017-11-17T07:20:57.624Z,7.50
2017-11-17T07:23:25.949Z,7.50
2017-11-17T07:25:54.258Z,7.50
2017-11-17T07:28:22.564Z,7.50
2017-11-17T07:30:51.660Z,7.40
2017-11-17T07:33:19.951Z,7.40
2017-11-17T07:35:48.273Z,7.40
2017-11-17T07:38:16.568Z,7.30
2017-11-17T07:40:44.912Z,7.30
2017-11-17T07:43:13.191Z,7.30
2017-11-17T07:45:41.487Z,7.30
2017-11-17T07:48:09.815Z,7.30
2017-11-17T07:50:38.116Z,7.30
2017-11-17T07:53:06.440Z,7.30
2017-11-17T07:55:34.729Z,7.40
2017-11-17T07:58:03.061Z,7.40
2017-11-17T08:00:32.120Z,7.50
2017-11-17T08:03:00.404Z,7.50
2017-11-17T08:05:28.718Z,7.60
2017-11-17T08:07:57.097Z,7.60
2017-11-17T08:10:25.387Z,7.70
2017-11-17T08:12:53.721Z,7.70
2017-11-17T08:15:22.806Z,7.80
2017-11-17T08:20:49.791Z,7.80
2017-11-17T08:23:18.188Z,7.80
2017-11-17T08:25:46.479Z,7.90
2017-11-17T08:28:14.867Z,7.90
2017-11-17T08:30:43.140Z,7.80
2017-11-17T08:33:11.425Z,7.90
2017-11-17T08:35:39.932Z,8.00
2017-11-17T08:38:08.227Z,8.00
2017-11-17T08:40:36.618Z,7.90
2017-11-17T08:43:04.946Z,8.00
2017-11-17T08:45:33.294Z,8.10
2017-11-17T08:48:01.617Z,8.10
2017-11-17T08:50:30.788Z,8.30
2017-11-17T08:52:59.084Z,8.30
2017-11-17T08:55:27.382Z,8.20
2017-11-17T08:57:55.688Z,8.20
2017-11-17T09:00:24.744Z,8.20
2017-11-17T09:02:53.058Z,8.20
2017-11-17T09:05:21.344Z,8.30
2017-11-17T09:07:49.664Z,8.30
2017-11-17T09:10:18.720Z,8.30
2017-11-17T09:12:47.036Z,8.30
2017-11-17T09:15:15.376Z,8.30
2017-11-17T09:17:43.708Z,8.30
2017-11-17T09:20:12.093Z,8.30
2017-11-17T09:22:40.413Z,8.40
2017-11-17T09:25:09.504Z,8.40
2017-11-17T09:27:37.820Z,8.40
2017-11-17T09:30:06.873Z,8.40
2017-11-17T09:32:35.161Z,8.40
2017-11-17T09:35:03.476Z,8.50
2017-11-17T09:37:33.258Z,8.50
2017-11-17T09:40:01.541Z,8.50
2017-11-17T09:42:29.851Z,8.50
2017-11-17T09:44:58.131Z,8.50
2017-11-17T09:47:26.450Z,8.50
2017-11-17T09:49:54.730Z,8.50
2017-11-17T09:52:23.135Z,8.60
2017-11-17T09:54:51.421Z,8.60
2017-11-17T09:57:19.821Z,8.60
2017-11-17T09:59:48.207Z,8.60
2017-11-17T10:02:16.520Z,8.60
2017-11-17T10:04:45.621Z,8.80
2017-11-17T10:07:13.924Z,8.80
2017-11-17T10:09:42.977Z,8.80
2017-11-17T10:12:11.297Z,8.80
2017-11-17T10:14:39.580Z,8.80
2017-11-17T10:17:07.886Z,9.00
2017-11-17T10:19:36.278Z,9.00
2017-11-17T10:22:04.617Z,9.00
2017-11-17T10:24:32.907Z,9.00
2017-11-17T10:27:01.194Z,9.10
2017-11-17T10:29:29.502Z,9.20
2017-11-17T10:31:58.764Z,9.10
2017-11-17T10:34:27.836Z,8.90
2017-11-17T10:36:56.143Z,8.90
2017-11-17T10:39:25.197Z,9.10
2017-11-17T10:41:53.516Z,9.00
2017-11-17T10:44:21.823Z,9.10
2017-11-17T10:46:50.223Z,9.10
2017-11-17T10:49:18.529Z,9.00
2017-11-17T10:51:47.560Z,8.90
2017-11-17T10:54:15.876Z,8.90
2017-11-17T10:56:44.158Z,8.90
2017-11-17T10:59:18.488Z,8.90
2017-11-17T11:01:46.904Z,8.90
2017-11-17T11:04:15.296Z,9.00
2017-11-17T11:06:43.572Z,9.10
2017-11-17T11:09:11.885Z,9.00
2017-11-17T11:11:45.869Z,8.90
2017-11-17T11:14:14.148Z,8.90
2017-11-17T11:16:42.463Z,9.00
2017-11-17T11:19:10.852Z,8.90
2017-11-17T11:21:39.167Z,8.90
2017-11-17T11:24:07.516Z,9.00
2017-11-17T11:26:35.832Z,9.20
2017-11-17T11:29:04.112Z,9.30
2017-11-17T11:31:32.416Z,9.20
2017-11-17T11:34:00.788Z,9.10
2017-11-17T11:36:29.194Z,9.10
2017-11-17T11:38:57.487Z,9.20
2017-11-17T11:41:25.804Z,9.30
2017-11-17T11:43:54.897Z,9.30
2017-11-17T11:46:23.994Z,9.30
2017-11-17T11:48:52.297Z,9.30
2017-11-17T11:51:21.388Z,9.20
2017-11-17T11:53:49.679Z,9.10
2017-11-17T11:56:18.153Z,9.00
2017-11-17T11:58:46.428Z,8.90
2017-11-17T12:01:14.718Z,8.80
2017-11-17T12:03:43.115Z,8.70
2017-11-17T12:06:11.392Z,8.70
2017-11-17T12:08:39.668Z,8.70
2017-11-17T12:11:07.991Z,8.80
2017-11-17T12:13:36.301Z,8.90
2017-11-17T12:16:04.681Z,8.90
2017-11-17T12:18:33.088Z,8.90
2017-11-17T12:21:01.365Z,8.90
2017-11-17T12:23:29.847Z,9.00
2017-11-17T12:25:58.245Z,9.00
2017-11-17T12:28:26.636Z,9.10
2017-11-17T12:30:54.957Z,9.20
2017-11-17T12:33:24.012Z,9.30
2017-11-17T12:35:52.324Z,9.30
2017-11-17T12:38:20.640Z,9.40
2017-11-17T12:40:49.695Z,9.50
2017-11-17T12:43:18.117Z,9.50
2017-11-17T12:45:46.411Z,9.60
2017-11-17T12:48:14.793Z,9.60
2017-11-17T12:50:43.101Z,9.60
2017-11-17T12:53:12.184Z,9.60
2017-11-17T12:55:40.473Z,9.60
2017-11-17T12:58:08.792Z,9.50
2017-11-17T13:00:37.881Z,9.40
2017-11-17T13:03:06.188Z,9.40
2017-11-17T13:05:35.242Z,9.30
2017-11-17T13:08:03.567Z,9.20
2017-11-17T13:10:31.848Z,9.20
2017-11-17T13:13:00.152Z,9.10
2017-11-17T13:15:28.442Z,9.10
2017-11-17T13:17:56.828Z,9.10
2017-11-17T13:20:25.161Z,9.10
2017-11-17T13:22:53.444Z,9.30
2017-11-17T13:25:21.784Z,9.30
2017-11-17T13:27:51.014Z,9.40
2017-11-17T13:30:19.302Z,9.40
2017-11-17T13:32:47.678Z,9.30
2017-11-17T13:35:15.961Z,9.30
2017-11-17T13:37:44.273Z,9.40
2017-11-17T13:40:13.364Z,9.30
2017-11-17T13:42:41.653Z,9.30
2017-11-17T13:45:10.053Z,9.30
2017-11-17T13:47:39.855Z,9.30
2017-11-17T13:50:08.149Z,9.30
2017-11-17T13:52:36.457Z,9.30
2017-11-17T13:55:04.750Z,9.30
2017-11-17T13:57:33.064Z,9.20
2017-11-17T14:00:01.425Z,9.30
2017-11-17T14:02:29.712Z,9.20
2017-11-17T14:04:58.025Z,9.20
2017-11-17T14:07:27.093Z,9.00
2017-11-17T14:09:55.364Z,9.00
2017-11-17T14:12:23.715Z,9.00
2017-11-17T14:14:52.767Z,8.90
2017-11-17T14:17:21.048Z,8.90
2017-11-17T14:19:49.367Z,8.80
2017-11-17T14:22:17.850Z,8.80
2017-11-17T14:24:46.181Z,8.70
2017-11-17T14:27:15.232Z,8.60
2017-11-17T14:29:43.557Z,8.60
2017-11-17T14:32:13.409Z,8.50
2017-11-17T14:34:42.481Z,8.50
2017-11-17T14:37:10.878Z,8.50
2017-11-17T14:39:39.173Z,8.50
2017-11-17T14:42:08.577Z,8.20
2017-11-17T14:44:36.859Z,8.20
2017-11-17T14:47:05.136Z,8.10
2017-11-17T14:49:33.446Z,8.10
2017-11-17T14:52:01.760Z,8.00
2017-11-17T14:54:30.807Z,7.80
2017-11-17T14:56:59.123Z,7.80
2017-11-17T14:59:27.520Z,7.70
2017-11-17T15:01:55.849Z,7.60
2017-11-17T15:04:24.207Z,7.50
2017-11-17T15:06:52.517Z,7.40
2017-11-17T15:09:21.564Z,7.20
2017-11-17T15:11:49.880Z,7.20
2017-11-17T15:14:18.277Z,7.10
2017-11-17T15:16:46.584Z,6.90
2017-11-17T15:19:15.672Z,6.70
2017-11-17T15:21:43.984Z,6.70
2017-11-17T15:24:13.064Z,6.50
2017-11-17T15:26:41.469Z,6.50
2017-11-17T15:29:09.757Z,6.40
2017-11-17T15:31:38.074Z,6.30
2017-11-17T15:34:07.197Z,6.10
2017-11-17T15:36:35.703Z,6.00
2017-11-17T15:39:04.235Z,6.00
2017-11-17T15:41:32.568Z,5.90
2017-11-17T15:44:00.895Z,5.80
2017-11-17T15:46:29.216Z,5.70
2017-11-17T15:48:57.594Z,5.60
2017-11-17T15:51:25.912Z,5.50
2017-11-17T15:53:54.184Z,5.40
2017-11-17T15:56:22.579Z,5.30
2017-11-17T15:58:50.960Z,5.10
2017-11-17T16:01:19.308Z,5.00
2017-11-17T16:03:47.833Z,5.00
2017-11-17T16:06:16.150Z,4.90
2017-11-17T16:08:45.252Z,4.80
2017-11-17T16:11:13.642Z,4.80
2017-11-17T16:13:41.973Z,4.70
2017-11-17T16:16:10.441Z,4.60
2017-11-17T16:18:39.514Z,4.50
2017-11-17T16:21:07.828Z,4.50
2017-11-17T16:23:36.885Z,4.40
2017-11-17T16:26:05.268Z,4.40
2017-11-17T16:28:33.596Z,4.30
2017-11-17T16:31:01.896Z,4.30
2017-11-17T16:33:30.220Z,4.20
2017-11-17T16:35:58.572Z,4.20
2017-11-17T16:38:26.884Z,4.10
2017-11-17T16:40:55.965Z,4.00
2017-11-17T16:43:24.298Z,4.00
2017-11-17T16:45:53.331Z,3.90
2017-11-17T16:48:21.659Z,3.90
2017-11-17T16:50:49.976Z,3.80
2017-11-17T16:53:19.072Z,3.80
2017-11-17T16:55:48.282Z,3.70
2017-11-17T16:58:17.375Z,3.70
2017-11-17T17:00:45.730Z,3.70
2017-11-17T17:03:14.092Z,3.60
2017-11-17T17:05:42.450Z,3.60
2017-11-17T17:08:10.787Z,3.50
2017-11-17T17:10:39.103Z,3.50
2017-11-17T17:15:42.867Z,3.30
2017-11-17T17:18:11.203Z,3.30
2017-11-17T17:20:39.574Z,3.30
2017-11-17T17:23:09.010Z,3.20
2017-11-17T17:25:38.648Z,3.20
2017-11-17T17:28:06.965Z,3.20
2017-11-17T17:30:35.303Z,3.10
2017-11-17T17:33:03.612Z,3.10
2017-11-17T17:35:32.013Z,3.00
2017-11-17T17:38:01.246Z,3.00
2017-11-17T17:40:29.534Z,2.90
2017-11-17T17:42:57.845Z,2.90
2017-11-17T17:45:26.196Z,2.90
2017-11-17T17:47:54.489Z,2.80
2017-11-17T17:50:23.006Z,2.80
2017-11-17T17:52:51.296Z,2.80
2017-11-17T17:55:19.688Z,2.70
2017-11-17T17:57:47.992Z,2.70
2017-11-17T18:00:16.365Z,2.70
2017-11-17T18:02:44.725Z,2.70
2017-11-17T18:05:13.059Z,2.70
2017-11-17T18:07:41.407Z,2.60
2017-11-17T18:10:10.311Z,2.60
2017-11-17T18:12:39.038Z,2.60
2017-11-17T18:15:07.469Z,2.60
2017-11-17T18:17:36.554Z,2.50
2017-11-17T18:20:04.926Z,2.50
2017-11-17T18:22:33.239Z,2.50
2017-11-17T18:25:01.613Z,2.50
2017-11-17T18:27:29.955Z,2.50
2017-11-17T18:29:58.327Z,2.50
2017-11-17T18:32:27.400Z,2.40
2017-11-17T18:34:55.750Z,2.40
2017-11-17T18:37:24.066Z,2.40
2017-11-17T18:39:52.387Z,2.40
2017-11-17T18:42:20.771Z,2.30
2017-11-17T18:44:49.050Z,2.30
2017-11-17T18:47:17.375Z,2.20
2017-11-17T18:49:46.446Z,2.20
2017-11-17T18:52:14.745Z,2.20
2017-11-17T18:54:43.099Z,2.30
2017-11-17T18:57:11.376Z,2.20
2017-11-17T18:59:39.672Z,2.20
2017-11-17T19:02:07.976Z,2.10
2017-11-17T19:04:37.245Z,2.20
2017-11-17T19:07:05.541Z,2.10
2017-11-17T19:09:33.895Z,2.10
2017-11-17T19:12:02.221Z,2.10
2017-11-17T19:14:30.542Z,2.10
2017-11-17T19:16:59.819Z,2.00
2017-11-17T19:19:28.142Z,2.00
2017-11-17T19:21:56.468Z,2.10
2017-11-17T19:24:24.766Z,2.10
2017-11-17T19:26:53.076Z,2.00
2017-11-17T19:29:21.364Z,2.00
2017-11-17T19:31:49.814Z,1.90
2017-11-17T19:34:18.272Z,1.90
2017-11-17T19:36:46.550Z,1.90
2017-11-17T19:39:14.892Z,1.90
2017-11-17T19:41:43.276Z,1.90
2017-11-17T19:44:11.564Z,1.80
2017-11-17T19:46:39.935Z,1.90
2017-11-17T19:49:08.265Z,1.90
2017-11-17T19:51:36.572Z,1.90
2017-11-17T19:54:05.019Z,1.80
2017-11-17T19:56:33.366Z,1.80
2017-11-17T19:59:01.751Z,1.80
2017-11-17T20:01:30.093Z,1.70
2017-11-17T20:03:58.401Z,1.60
2017-11-17T20:06:26.885Z,1.60
2017-11-17T20:08:55.196Z,1.60
2017-11-17T20:11:23.490Z,1.60
2017-11-17T20:13:52.580Z,1.50
2017-11-17T20:16:20.895Z,1.50
2017-11-17T20:18:49.984Z,1.50
2017-11-17T20:21:18.344Z,1.50
2017-11-17T20:23:46.673Z,1.50
2017-11-17T20:26:15.769Z,1.40
2017-11-17T20:28:44.097Z,1.40
2017-11-17T20:31:12.392Z,1.40
2017-11-17T20:33:40.726Z,1.40
2017-11-17T20:36:09.061Z,1.40
2017-11-17T20:38:37.391Z,1.40
2017-11-17T20:41:05.728Z,1.40
2017-11-17T20:43:34.050Z,1.60
2017-11-17T20:46:02.376Z,1.60
2017-11-17T20:48:30.664Z,1.60
2017-11-17T20:50:58.990Z,1.50
2017-11-17T20:53:28.068Z,1.30
2017-11-17T20:55:56.401Z,1.30
2017-11-17T20:58:25.732Z,1.40
2017-11-17T21:00:54.035Z,1.40
2017-11-17T21:03:22.394Z,1.40
2017-11-17T21:05:50.766Z,1.40
2017-11-17T21:08:19.861Z,1.50
2017-11-17T21:10:48.946Z,1.40
2017-11-17T21:13:17.254Z,1.40
2017-11-17T21:15:45.589Z,1.40
2017-11-17T21:18:13.884Z,1.30
2017-11-17T21:20:42.199Z,1.30
2017-11-17T21:23:10.493Z,1.30
2017-11-17T21:25:38.881Z,1.30
2017-11-17T21:28:07.178Z,1.40
2017-11-17T21:30:35.682Z,1.40
2017-11-17T21:33:04.806Z,1.40
2017-11-17T21:35:33.880Z,1.50
2017-11-17T21:38:02.176Z,1.50
2017-11-17T21:40:30.505Z,1.60
2017-11-17T21:42:58.801Z,1.70
2017-11-17T21:45:27.102Z,1.70
2017-11-17T21:47:55.446Z,1.90
2017-11-17T21:50:24.651Z,1.90
2017-11-17T21:52:52.961Z,1.90
2017-11-17T21:55:22.077Z,1.90
2017-11-17T21:57:51.147Z,2.00
2017-11-17T22:00:19.476Z,1.90
2017-11-17T22:02:48.552Z,2.00
2017-11-17T22:05:17.045Z,2.00
2017-11-17T22:07:46.869Z,2.00
2017-11-17T22:10:15.160Z,2.00
2017-11-17T22:12:43.498Z,2.10
2017-11-17T22:15:11.860Z,2.00
2017-11-17T22:17:40.148Z,2.00
2017-11-17T22:20:09.215Z,1.90
2017-11-17T22:22:37.667Z,1.90
2017-11-17T22:25:05.988Z,2.10
2017-11-17T22:27:34.297Z,2.10
2017-11-17T22:30:02.642Z,2.00
2017-11-17T22:32:30.950Z,2.00
2017-11-17T22:34:59.261Z,2.10
2017-11-17T22:37:27.561Z,2.00
2017-11-17T22:39:55.902Z,2.00
2017-11-17T22:42:24.196Z,2.00
2017-11-17T22:44:52.515Z,2.00
2017-11-17T22:47:20.815Z,1.90
2017-11-17T22:49:49.137Z,1.90
2017-11-17T22:52:18.229Z,1.80
2017-11-17T22:54:46.561Z,1.80
2017-11-17T22:57:14.847Z,1.80
2017-11-17T22:59:43.165Z,1.80
2017-11-17T23:02:11.456Z,1.80
2017-11-17T23:04:39.785Z,1.80
2017-11-17T23:07:08.860Z,1.90
2017-11-17T23:09:37.186Z,1.80
2017-11-17T23:12:06.277Z,1.90
2017-11-17T23:14:34.588Z,1.80
2017-11-17T23:17:03.663Z,1.90
2017-11-17T23:19:31.971Z,1.90
2017-11-17T23:22:01.035Z,1.80
2017-11-17T23:24:29.364Z,1.80
2017-11-17T23:26:57.661Z,1.80
2017-11-17T23:29:26.764Z,1.70
2017-11-17T23:31:55.073Z,1.60
2017-11-17T23:34:24.160Z,1.70
2017-11-17T23:36:52.549Z,1.70
2017-11-17T23:39:20.912Z,1.70
2017-11-17T23:41:49.338Z,1.60
2017-11-17T23:44:18.437Z,1.60
2017-11-17T23:46:46.725Z,1.50
2017-11-17T23:49:15.080Z,1.50
2017-11-17T23:51:43.652Z,1.50
2017-11-17T23:54:11.948Z,1.50
2017-11-17T23:56:40.239Z,1.50
2017-11-17T23:59:08.552Z,1.60
